Time,TemperatureF,DewpointF,PressureIn,WindDirection,WindDirectionDegrees,WindSpeedMPH,WindSpeedGustMPH,Humidity,HourlyPrecipIn,Conditions,Clouds,dailyrainin,SolarRadiationWatts/m^2,SoftwareType,DateUTC
2013-02-24 00:00:00,31.1,27.1,29.87,ESE,116,3.0,13.0,85,0.00,,---,0.03,0.00,VWS V14.00,2013-02-24 05:00:00,
2013-02-24 00:05:00,31.1,27.1,29.86,SSE,150,2.0,13.0,85,0.00,,---,0.03,0.00,VWS V14.00,2013-02-24 05:05:00,
2013-02-24 00:10:00,31.0,27.0,29.87,SSE,167,3.0,13.0,85,0.00,,---,0.03,0.00,VWS V14.00,2013-02-24 05:10:00,
2013-02-24 00:15:00,31.0,27.0,29.86,SE,143,1.0,13.0,85,0.00,,---,0.03,0.00,VWS V14.00,2013-02-24 05:15:00,
2013-02-24 00:20:00,31.1,27.1,29.86,ESE,113,7.0,7.0,85,0.00,,---,0.03,0.00,VWS V14.00,2013-02-24 05:20:00,
2013-02-24 00:25:00,31.0,27.0,29.86,East,95,7.0,11.0,85,0.00,,---,0.03,0.00,VWS V14.00,2013-02-24 05:25:00,
2013-02-24 00:30:00,31.0,27.0,29.86,SSE,157,2.0,12.0,85,0.00,,---,0.03,0.00,VWS V14.00,2013-02-24 05:30:00,
2013-02-24 00:35:00,30.9,27.2,29.86,SSE,167,4.0,12.0,86,0.00,,---,0.03,0.00,VWS V14.00,2013-02-24 05:35:00,
2013-02-24 00:40:00,30.8,27.1,29.86,SSE,165,4.0,12.0,86,0.00,,---,0.03,0.00,VWS V14.00,2013-02-24 05:40:00,
2013-02-24 00:45:00,30.8,27.1,29.86,SSE,164,2.0,5.0,86,0.00,,---,0.03,0.00,VWS V14.00,2013-02-24 05:45:00,
2013-02-24 00:50:00,30.8,27.1,29.86,South,177,3.0,10.0,86,0.00,,---,0.03,0.00,VWS V14.00,2013-02-24 05:50:00,
2013-02-24 00:55:00,30.8,27.1,29.86,South,176,1.0,10.0,86,0.00,,---,0.03,0.00,VWS V14.00,2013-02-24 05:55:00,
2013-02-24 01:00:00,30.7,27.0,29.85,SE,133,4.0,10.0,86,0.00,,---,0.03,0.00,VWS V14.00,2013-02-24 06:00:00,
2013-02-24 01:05:00,30.7,27.0,29.85,South,178,4.0,10.0,86,0.00,,---,0.03,0.00,VWS V14.00,2013-02-24 06:05:00,
2013-02-24 01:10:00,30.8,27.1,29.85,SSE,163,2.0,10.0,86,0.00,,---,0.03,0.00,VWS V14.00,2013-02-24 06:10:00,
2013-02-24 01:15:00,30.8,27.1,29.85,South,171,2.0,2.0,86,0.00,,---,0.03,0.00,VWS V14.00,2013-02-24 06:15:00,
2013-02-24 01:20:00,30.8,27.1,29.85,South,169,3.0,5.0,86,0.00,,---,0.03,0.00,VWS V14.00,2013-02-24 06:20:00,
2013-02-24 01:25:00,30.7,27.0,29.85,South,169,1.0,5.0,86,0.00,,---,0.03,0.00,VWS V14.00,2013-02-24 06:25:00,
2013-02-24 01:30:00,30.6,26.9,29.85,SSE,161,0.0,6.0,86,0.00,,---,0.03,0.00,VWS V14.00,2013-02-24 06:30:00,
2013-02-24 01:35:00,30.6,27.2,29.85,South,171,7.0,7.0,87,0.00,,---,0.03,0.00,VWS V14.00,2013-02-24 06:35:00,
2013-02-24 01:40:00,30.7,27.3,29.85,SSE,168,0.0,7.0,87,0.00,,---,0.03,0.00,VWS V14.00,2013-02-24 06:40:00,
2013-02-24 01:45:00,30.7,27.3,29.85,SSE,155,3.0,7.0,87,0.00,,---,0.03,0.00,VWS V14.00,2013-02-24 06:45:00,
2013-02-24 01:50:00,30.7,27.3,29.84,SSE,159,1.0,6.0,87,0.00,,---,0.03,0.00,VWS V14.00,2013-02-24 06:50:00,
2013-02-24 01:55:00,30.6,27.2,29.83,SSE,167,3.0,6.0,87,0.00,,---,0.03,0.00,VWS V14.00,2013-02-24 06:55:00,
2013-02-24 02:00:00,30.6,27.2,29.83,South,180,4.0,6.0,87,0.00,,---,0.03,0.00,VWS V14.00,2013-02-24 07:00:00,
2013-02-24 02:05:00,30.6,27.2,29.83,South,171,1.0,6.0,87,0.00,,---,0.03,0.00,VWS V14.00,2013-02-24 07:05:00,
2013-02-24 02:10:00,30.6,27.2,29.82,South,173,3.0,6.0,87,0.00,,---,0.03,0.00,VWS V14.00,2013-02-24 07:10:00,
2013-02-24 02:15:00,30.5,27.1,29.82,SSE,153,3.0,3.0,87,0.00,,---,0.00,0.00,VWS V14.00,2013-02-24 07:15:00,
2013-02-24 02:20:00,30.5,27.1,29.82,South,178,2.0,5.0,87,0.00,,---,0.00,0.00,VWS V14.00,2013-02-24 07:20:00,
2013-02-24 02:25:00,30.5,27.1,29.82,SSE,156,1.0,8.0,87,0.00,,---,0.00,0.00,VWS V14.00,2013-02-24 07:25:00,
2013-02-24 02:30:00,29.8,22.5,30.14,ESE,109,0.0,13.0,74,0.00,,---,0.00,0.00,VWS V14.00,2013-02-24 07:30:00,
2013-02-24 02:31:00,30.6,27.2,29.81,SSE,163,4.0,8.0,87,0.00,,---,0.00,0.00,VWS V14.00,2013-02-24 07:31:00,
2013-02-24 02:36:00,30.7,27.3,29.81,South,179,7.0,8.0,87,0.00,,---,0.00,0.00,VWS V14.00,2013-02-24 07:36:00,
2013-02-24 02:41:00,30.7,27.3,29.81,SSE,166,2.0,8.0,87,0.00,,---,0.00,0.00,VWS V14.00,2013-02-24 07:41:00,
2013-02-24 02:46:00,30.7,27.3,29.80,South,180,6.0,6.0,87,0.00,,---,0.00,0.00,VWS V14.00,2013-02-24 07:46:00,
2013-02-24 02:51:00,30.8,27.4,29.80,SSE,159,3.0,6.0,87,0.00,,---,0.00,0.00,VWS V14.00,2013-02-24 07:51:00,
2013-02-24 02:56:00,30.8,27.4,29.80,South,187,6.0,8.0,87,0.00,,---,0.00,0.00,VWS V14.00,2013-02-24 07:56:00,
2013-02-24 03:00:00,29.7,23.1,30.13,East,98,6.0,9.0,76,0.00,,---,0.00,0.00,VWS V14.00,2013-02-24 08:00:00,
2013-02-24 03:01:00,30.8,27.4,29.81,SSW,204,3.0,8.0,87,0.00,,---,0.00,0.00,VWS V14.00,2013-02-24 08:01:00,
2013-02-24 03:06:00,30.8,27.4,29.80,South,174,5.0,8.0,87,0.00,,---,0.00,0.00,VWS V14.00,2013-02-24 08:06:00,
2013-02-24 03:11:00,30.7,27.3,29.80,South,169,2.0,8.0,87,0.00,,---,0.00,0.00,VWS V14.00,2013-02-24 08:11:00,
2013-02-24 03:16:00,30.7,27.3,29.80,South,190,4.0,5.0,87,0.00,,---,0.00,0.00,VWS V14.00,2013-02-24 08:16:00,
2013-02-24 03:21:00,30.7,27.3,29.80,South,184,6.0,6.0,87,0.00,,---,0.00,0.00,VWS V14.00,2013-02-24 08:21:00,
2013-02-24 03:26:00,30.8,27.4,29.80,SSE,162,2.0,7.0,87,0.00,,---,0.00,0.00,VWS V14.00,2013-02-24 08:26:00,
2013-02-24 03:30:00,29.6,23.6,30.13,SSE,149,2.0,10.0,78,0.00,,---,0.00,0.00,VWS V14.00,2013-02-24 08:30:00,
2013-02-24 03:31:00,30.8,27.4,29.80,SSE,165,3.0,7.0,87,0.00,,---,0.00,0.00,VWS V14.00,2013-02-24 08:31:00,
2013-02-24 03:36:00,30.9,27.5,29.80,South,169,3.0,7.0,87,0.00,,---,0.00,0.00,VWS V14.00,2013-02-24 08:36:00,
2013-02-24 03:41:00,30.8,27.4,29.80,SSE,167,2.0,7.0,87,0.00,,---,0.00,0.00,VWS V14.00,2013-02-24 08:41:00,
2013-02-24 03:46:00,30.8,27.4,29.79,South,178,2.0,7.0,87,0.00,,---,0.00,0.00,VWS V14.00,2013-02-24 08:46:00,
2013-02-24 03:51:00,30.8,27.4,29.79,South,189,6.0,7.0,87,0.00,,---,0.00,0.00,VWS V14.00,2013-02-24 08:51:00,
2013-02-24 03:56:00,30.8,27.4,29.79,South,173,2.0,7.0,87,0.00,,---,0.00,0.00,VWS V14.00,2013-02-24 08:56:00,
2013-02-24 04:00:00,29.3,23.9,30.11,SSE,152,1.0,5.0,80,0.00,,---,0.00,0.00,VWS V14.00,2013-02-24 09:00:00,
2013-02-24 04:01:00,30.8,27.4,29.79,SSE,167,0.0,7.0,87,0.00,,---,0.00,0.00,VWS V14.00,2013-02-24 09:01:00,
2013-02-24 04:06:00,30.9,27.5,29.79,SSE,159,3.0,10.0,87,0.00,,---,0.00,0.00,VWS V14.00,2013-02-24 09:06:00,
2013-02-24 04:11:00,30.8,27.4,29.79,SSW,197,3.0,10.0,87,0.00,,---,0.00,0.00,VWS V14.00,2013-02-24 09:11:00,
2013-02-24 04:16:00,30.8,27.4,29.78,SSW,199,1.0,3.0,87,0.00,,---,0.00,0.00,VWS V14.00,2013-02-24 09:16:00,
2013-02-24 04:21:00,30.8,27.4,29.79,SSW,213,2.0,5.0,87,0.00,,---,0.00,0.00,VWS V14.00,2013-02-24 09:21:00,
2013-02-24 04:26:00,30.8,27.4,29.79,SSE,155,2.0,6.0,87,0.00,,---,0.00,0.00,VWS V14.00,2013-02-24 09:26:00,
2013-02-24 04:30:00,29.3,23.9,30.11,SE,134,0.0,13.0,80,0.00,,---,0.00,0.00,VWS V14.00,2013-02-24 09:30:00,
2013-02-24 04:31:00,30.8,27.4,29.79,SSE,167,5.0,6.0,87,0.00,,---,0.00,0.00,VWS V14.00,2013-02-24 09:31:00,
2013-02-24 04:36:00,30.8,27.1,29.80,SSE,165,3.0,8.0,86,0.00,,---,0.00,0.00,VWS V14.00,2013-02-24 09:36:00,
2013-02-24 04:41:00,31.0,27.3,29.80,SSE,156,2.0,10.0,86,0.00,,---,0.00,0.00,VWS V14.00,2013-02-24 09:41:00,
2013-02-24 04:46:00,31.0,27.3,29.80,SSE,148,3.0,3.0,86,0.00,,---,0.00,0.00,VWS V14.00,2013-02-24 09:46:00,
2013-02-24 04:51:00,31.1,27.4,29.80,SE,128,4.0,6.0,86,0.00,,---,0.00,0.00,VWS V14.00,2013-02-24 09:51:00,
2013-02-24 04:56:00,31.2,27.5,29.80,SE,132,3.0,6.0,86,0.00,,---,0.00,0.00,VWS V14.00,2013-02-24 09:56:00,
2013-02-24 05:00:00,29.2,24.1,30.11,East,88,6.0,13.0,81,0.00,,---,0.00,16.00,VWS V14.00,2013-02-24 10:00:00,
2013-02-24 05:01:00,31.2,27.2,29.80,SSE,166,5.0,6.0,85,0.00,,---,0.00,0.00,VWS V14.00,2013-02-24 10:01:00,
2013-02-24 05:06:00,31.2,27.5,29.80,SSE,161,3.0,9.0,86,0.00,,---,0.00,0.00,VWS V14.00,2013-02-24 10:06:00,
2013-02-24 05:11:00,31.2,27.5,29.80,SSE,168,3.0,9.0,86,0.00,,---,0.00,0.00,VWS V14.00,2013-02-24 10:11:00,
2013-02-24 05:16:00,31.1,27.4,29.80,SSW,205,4.0,7.0,86,0.00,,---,0.00,0.00,VWS V14.00,2013-02-24 10:16:00,
2013-02-24 05:21:00,31.2,27.5,29.80,South,186,5.0,7.0,86,0.00,,---,0.00,0.00,VWS V14.00,2013-02-24 10:21:00,
2013-02-24 05:26:00,31.2,27.5,29.80,SSE,162,4.0,10.0,86,0.00,,---,0.00,0.00,VWS V14.00,2013-02-24 10:26:00,
2013-02-24 05:30:00,29.4,24.0,30.11,South,173,4.0,9.0,80,0.00,,---,0.00,32.00,VWS V14.00,2013-02-24 10:30:00,
2013-02-24 05:31:00,31.2,27.5,29.80,South,182,1.0,10.0,86,0.00,,---,0.00,0.00,VWS V14.00,2013-02-24 10:31:00,
2013-02-24 05:36:00,31.3,27.6,29.80,South,173,2.0,10.0,86,0.00,,---,0.00,0.00,VWS V14.00,2013-02-24 10:36:00,
2013-02-24 05:41:00,31.3,27.6,29.79,SSE,165,4.0,10.0,86,0.00,,---,0.00,0.00,VWS V14.00,2013-02-24 10:41:00,
2013-02-24 05:46:00,31.4,27.7,29.79,South,169,4.0,7.0,86,0.00,,---,0.00,0.00,VWS V14.00,2013-02-24 10:46:00,
2013-02-24 05:51:00,31.3,27.6,29.79,South,174,2.0,10.0,86,0.00,,---,0.00,0.00,VWS V14.00,2013-02-24 10:51:00,
2013-02-24 05:56:00,31.4,27.7,29.80,SW,224,5.0,10.0,86,0.00,,---,0.00,0.00,VWS V14.00,2013-02-24 10:56:00,
2013-02-24 06:00:00,29.5,24.1,30.11,SE,144,2.0,13.0,80,0.00,,---,0.00,46.00,VWS V14.00,2013-02-24 11:00:00,
2013-02-24 06:01:00,31.4,27.7,29.80,South,174,3.0,10.0,86,0.00,,---,0.00,0.00,VWS V14.00,2013-02-24 11:01:00,
2013-02-24 06:06:00,31.3,27.6,29.80,South,183,6.0,10.0,86,0.00,,---,0.00,0.00,VWS V14.00,2013-02-24 11:06:00,
2013-02-24 06:12:00,31.2,27.5,29.80,SSE,159,4.0,10.0,86,0.00,,---,0.00,0.00,VWS V14.00,2013-02-24 11:12:00,
2013-02-24 06:17:00,31.2,27.5,29.80,South,183,3.0,3.0,86,0.00,,---,0.00,0.00,VWS V14.00,2013-02-24 11:17:00,
2013-02-24 06:22:00,31.1,27.4,29.80,ESE,113,2.0,5.0,86,0.00,,---,0.00,0.00,VWS V14.00,2013-02-24 11:22:00,
2013-02-24 06:27:00,31.1,27.7,29.80,East,94,1.0,5.0,87,0.00,,---,0.00,0.00,VWS V14.00,2013-02-24 11:27:00,
2013-02-24 06:30:00,29.9,24.2,30.09,ESE,120,4.0,18.0,79,0.00,,---,0.00,109.00,VWS V14.00,2013-02-24 11:30:00,
2013-02-24 06:32:00,31.1,27.7,29.80,SSE,149,2.0,5.0,87,0.00,,---,0.00,0.00,VWS V14.00,2013-02-24 11:32:00,
2013-02-24 06:37:00,31.0,27.6,29.80,South,172,7.0,7.0,87,0.00,,---,0.00,0.00,VWS V14.00,2013-02-24 11:37:00,
2013-02-24 06:42:00,31.0,27.6,29.80,SSE,160,3.0,7.0,87,0.00,,---,0.00,0.00,VWS V14.00,2013-02-24 11:42:00,
2013-02-24 06:47:00,30.9,27.5,29.80,East,95,2.0,5.0,87,0.00,,---,0.00,0.00,VWS V14.00,2013-02-24 11:47:00,
2013-02-24 06:52:00,30.8,27.4,29.80,SSE,167,2.0,5.0,87,0.00,,---,0.00,0.00,VWS V14.00,2013-02-24 11:52:00,
2013-02-24 06:57:00,30.8,27.4,29.79,SSE,150,2.0,5.0,87,0.00,,---,0.00,5.00,VWS V14.00,2013-02-24 11:57:00,
2013-02-24 07:00:00,30.3,24.3,30.08,South,182,7.0,17.0,78,0.00,,---,0.00,44.00,VWS V14.00,2013-02-24 12:00:00,
2013-02-24 07:02:00,30.8,27.4,29.79,South,170,3.0,5.0,87,0.00,,---,0.00,5.00,VWS V14.00,2013-02-24 12:02:00,
2013-02-24 07:07:00,30.9,27.5,29.79,SE,132,1.0,5.0,87,0.00,,---,0.00,9.00,VWS V14.00,2013-02-24 12:07:00,
2013-02-24 07:12:00,30.9,27.5,29.79,SSE,160,3.0,5.0,87,0.00,,---,0.00,11.00,VWS V14.00,2013-02-24 12:12:00,
2013-02-24 07:17:00,30.9,27.5,29.79,SSE,158,3.0,6.0,87,0.00,,---,0.00,12.00,VWS V14.00,2013-02-24 12:17:00,
2013-02-24 07:22:00,31.0,27.6,29.79,SE,144,4.0,7.0,87,0.00,,---,0.00,14.00,VWS V14.00,2013-02-24 12:22:00,
2013-02-24 07:27:00,31.0,27.6,29.79,SE,130,1.0,7.0,87,0.00,,---,0.00,19.00,VWS V14.00,2013-02-24 12:27:00,
2013-02-24 07:30:00,30.1,24.4,30.08,ESE,117,2.0,11.0,79,0.00,,---,0.00,76.00,VWS V14.00,2013-02-24 12:30:00,
2013-02-24 07:32:00,31.0,27.6,29.79,SSE,164,3.0,7.0,87,0.00,,---,0.00,23.00,VWS V14.00,2013-02-24 12:32:00,
2013-02-24 07:37:00,31.1,27.7,29.79,South,169,3.0,7.0,87,0.00,,---,0.00,25.00,VWS V14.00,2013-02-24 12:37:00,
2013-02-24 07:42:00,31.2,27.8,29.79,SSE,153,1.0,7.0,87,0.00,,---,0.00,28.00,VWS V14.00,2013-02-24 12:42:00,
2013-02-24 07:47:00,31.2,27.8,29.79,SSE,163,2.0,4.0,87,0.00,,---,0.00,30.00,VWS V14.00,2013-02-24 12:47:00,
2013-02-24 07:52:00,31.2,27.8,29.79,SSE,154,2.0,5.0,87,0.00,,---,0.00,26.00,VWS V14.00,2013-02-24 12:52:00,
2013-02-24 07:57:00,31.3,27.9,29.79,South,173,1.0,5.0,87,0.00,,---,0.00,25.00,VWS V14.00,2013-02-24 12:57:00,
2013-02-24 08:00:00,30.7,25.0,30.07,SE,140,2.0,17.0,79,0.00,,---,0.00,95.00,VWS V14.00,2013-02-24 13:00:00,
2013-02-24 08:02:00,31.4,28.0,29.79,ESE,119,4.0,5.0,87,0.00,,---,0.00,28.00,VWS V14.00,2013-02-24 13:02:00,
2013-02-24 08:07:00,31.4,28.0,29.79,SSE,160,3.0,8.0,87,0.00,,---,0.00,26.00,VWS V14.00,2013-02-24 13:07:00,
2013-02-24 08:13:00,31.4,28.0,29.79,SSE,158,2.0,8.0,87,0.00,,---,0.00,21.00,VWS V14.00,2013-02-24 13:13:00,
2013-02-24 08:18:00,31.4,28.0,29.79,South,177,3.0,3.0,87,0.00,,---,0.00,23.00,VWS V14.00,2013-02-24 13:18:00,
2013-02-24 08:23:00,31.5,28.1,29.79,SSE,153,2.0,4.0,87,0.00,,---,0.00,26.00,VWS V14.00,2013-02-24 13:23:00,
2013-02-24 08:28:00,31.5,28.1,29.79,SSE,151,1.0,7.0,87,0.00,,---,0.00,32.00,VWS V14.00,2013-02-24 13:28:00,
2013-02-24 08:30:00,31.0,25.3,30.06,SSE,157,2.0,18.0,79,0.00,,---,0.00,105.00,VWS V14.00,2013-02-24 13:30:00,
2013-02-24 08:33:00,31.6,27.9,29.79,SSW,194,6.0,7.0,86,0.00,,---,0.00,42.00,VWS V14.00,2013-02-24 13:33:00,
2013-02-24 08:38:00,31.7,28.0,29.78,South,170,5.0,7.0,86,0.00,,---,0.00,63.00,VWS V14.00,2013-02-24 13:38:00,
2013-02-24 08:43:00,31.8,28.1,29.78,SSW,208,3.0,7.0,86,0.00,,---,0.00,74.00,VWS V14.00,2013-02-24 13:43:00,
2013-02-24 08:48:00,31.9,28.2,29.78,SSW,197,2.0,5.0,86,0.00,,---,0.00,63.00,VWS V14.00,2013-02-24 13:48:00,
2013-02-24 08:53:00,32.1,28.4,29.78,SSE,167,5.0,5.0,86,0.00,,---,0.00,53.00,VWS V14.00,2013-02-24 13:53:00,
2013-02-24 08:58:00,32.1,28.4,29.78,SW,224,3.0,5.0,86,0.00,,---,0.00,60.00,VWS V14.00,2013-02-24 13:58:00,
2013-02-24 09:00:00,30.7,25.3,30.05,ESE,121,2.0,14.0,80,0.00,,---,0.00,109.00,VWS V14.00,2013-02-24 14:00:00,
2013-02-24 09:03:00,32.2,28.5,29.77,South,180,3.0,7.0,86,0.00,,---,0.00,69.00,VWS V14.00,2013-02-24 14:03:00,
2013-02-24 09:08:00,32.3,28.6,29.78,SW,215,2.0,7.0,86,0.00,,---,0.00,76.00,VWS V14.00,2013-02-24 14:08:00,
2013-02-24 09:13:00,32.3,28.6,29.78,South,172,3.0,7.0,86,0.00,,---,0.00,65.00,VWS V14.00,2013-02-24 14:13:00,
2013-02-24 09:18:00,32.3,28.6,29.77,SSE,167,3.0,6.0,86,0.00,,---,0.00,67.00,VWS V14.00,2013-02-24 14:18:00,
2013-02-24 09:23:00,32.3,28.6,29.77,South,178,2.0,6.0,86,0.00,,---,0.00,76.00,VWS V14.00,2013-02-24 14:23:00,
2013-02-24 09:28:00,32.4,28.4,29.77,SSE,165,1.0,6.0,85,0.00,,---,0.00,83.00,VWS V14.00,2013-02-24 14:28:00,
2013-02-24 09:30:00,30.9,25.5,30.04,SE,136,3.0,9.0,80,0.00,,---,0.00,81.00,VWS V14.00,2013-02-24 14:30:00,
2013-02-24 09:33:00,32.6,28.6,29.77,SSE,158,2.0,6.0,85,0.00,,---,0.00,91.00,VWS V14.00,2013-02-24 14:33:00,
2013-02-24 09:39:00,32.6,28.6,29.77,SE,132,2.0,6.0,85,0.00,,---,0.00,93.00,VWS V14.00,2013-02-24 14:39:00,
2013-02-24 09:44:00,32.8,28.8,29.77,SE,137,1.0,6.0,85,0.00,,---,0.00,111.00,VWS V14.00,2013-02-24 14:44:00,
2013-02-24 09:49:00,32.9,28.9,29.77,SE,134,2.0,4.0,85,0.00,,---,0.00,107.00,VWS V14.00,2013-02-24 14:49:00,
2013-02-24 09:54:00,33.1,28.8,29.77,SE,135,0.0,4.0,84,0.00,,---,0.00,113.00,VWS V14.00,2013-02-24 14:54:00,
2013-02-24 09:59:00,33.2,28.9,29.77,SE,140,0.0,4.0,84,0.00,,---,0.00,100.00,VWS V14.00,2013-02-24 14:59:00,
2013-02-24 10:00:00,30.1,25.9,30.03,SW,223,4.0,18.0,84,0.00,,---,0.00,42.00,VWS V14.00,2013-02-24 15:00:00,
2013-02-24 10:04:00,33.2,28.9,29.76,East,92,1.0,5.0,84,0.00,,---,0.00,111.00,VWS V14.00,2013-02-24 15:04:00,
2013-02-24 10:09:00,33.3,29.0,29.76,ESE,107,0.0,5.0,84,0.00,,---,0.00,123.00,VWS V14.00,2013-02-24 15:09:00,
2013-02-24 10:14:00,33.5,29.2,29.76,SE,136,1.0,5.0,84,0.00,,---,0.00,125.00,VWS V14.00,2013-02-24 15:14:00,
2013-02-24 10:19:00,33.6,29.3,29.76,SE,138,1.0,1.0,84,0.00,,---,0.00,123.00,VWS V14.00,2013-02-24 15:19:00,
2013-02-24 10:24:00,33.6,29.3,29.76,SE,143,2.0,3.0,84,0.00,,---,0.00,118.00,VWS V14.00,2013-02-24 15:24:00,
2013-02-24 10:29:00,33.5,29.2,29.76,SSE,148,0.0,4.0,84,0.00,,---,0.00,114.00,VWS V14.00,2013-02-24 15:29:00,
2013-02-24 10:30:00,29.8,25.9,30.01,SSE,165,1.0,13.0,85,0.00,,---,0.00,111.00,VWS V14.00,2013-02-24 15:30:00,
2013-02-24 10:34:00,33.6,29.3,29.76,SSE,165,1.0,4.0,84,0.00,,---,0.00,135.00,VWS V14.00,2013-02-24 15:34:00,
2013-02-24 10:39:00,33.8,29.5,29.75,SSE,165,0.0,4.0,84,0.00,,---,0.00,148.00,VWS V14.00,2013-02-24 15:39:00,
2013-02-24 10:44:00,34.0,29.4,29.75,South,175,0.0,4.0,83,0.00,,---,0.00,139.00,VWS V14.00,2013-02-24 15:44:00,
2013-02-24 10:49:00,34.0,29.4,29.75,SSE,166,1.0,4.0,83,0.00,,---,0.00,123.00,VWS V14.00,2013-02-24 15:49:00,
2013-02-24 10:54:00,33.9,29.3,29.76,SSE,168,2.0,4.0,83,0.00,,---,0.00,114.00,VWS V14.00,2013-02-24 15:54:00,
2013-02-24 10:59:00,33.9,29.3,29.75,SSE,167,1.0,4.0,83,0.00,,---,0.00,123.00,VWS V14.00,2013-02-24 15:59:00,
2013-02-24 11:00:00,30.5,26.5,30.00,SSE,151,1.0,17.0,85,0.00,,---,0.00,70.00,VWS V14.00,2013-02-24 16:00:00,
2013-02-24 11:04:00,34.0,29.4,29.75,ESE,105,0.0,8.0,83,0.00,,---,0.00,123.00,VWS V14.00,2013-02-24 16:04:00,
2013-02-24 11:09:00,34.1,29.5,29.75,ESE,111,0.0,8.0,83,0.00,,---,0.00,127.00,VWS V14.00,2013-02-24 16:09:00,
2013-02-24 11:14:00,34.1,29.5,29.75,SSE,167,2.0,8.0,83,0.00,,---,0.00,123.00,VWS V14.00,2013-02-24 16:14:00,
2013-02-24 11:19:00,34.1,29.5,29.75,ESE,103,0.0,4.0,83,0.00,,---,0.00,125.00,VWS V14.00,2013-02-24 16:19:00,
2013-02-24 11:24:00,34.1,29.5,29.75,ESE,103,1.0,4.0,83,0.00,,---,0.00,130.00,VWS V14.00,2013-02-24 16:24:00,
2013-02-24 11:29:00,34.1,29.5,29.75,SSE,147,2.0,4.0,83,0.00,,---,0.00,111.00,VWS V14.00,2013-02-24 16:29:00,
2013-02-24 11:30:00,30.4,26.1,29.99,East,82,9.0,18.0,84,0.01,,---,0.01,63.00,VWS V14.00,2013-02-24 16:30:00,
2013-02-24 11:34:00,34.1,29.5,29.75,SE,146,0.0,4.0,83,0.00,,---,0.00,114.00,VWS V14.00,2013-02-24 16:34:00,
2013-02-24 11:39:00,34.2,29.6,29.75,SSE,152,2.0,4.0,83,0.00,,---,0.00,127.00,VWS V14.00,2013-02-24 16:39:00,
2013-02-24 11:44:00,34.1,29.5,29.75,SSE,152,0.0,4.0,83,0.00,,---,0.00,121.00,VWS V14.00,2013-02-24 16:44:00,
2013-02-24 11:49:00,34.2,29.6,29.75,South,169,2.0,3.0,83,0.00,,---,0.00,116.00,VWS V14.00,2013-02-24 16:49:00,
2013-02-24 11:54:00,34.2,29.3,29.75,ESE,111,1.0,6.0,82,0.00,,---,0.00,116.00,VWS V14.00,2013-02-24 16:54:00,
2013-02-24 11:59:00,34.4,29.8,29.75,SE,139,0.0,6.0,83,0.00,,---,0.00,121.00,VWS V14.00,2013-02-24 16:59:00,
2013-02-24 12:00:00,30.7,26.5,29.98,South,180,5.0,17.0,84,0.01,,---,0.01,93.00,VWS V14.00,2013-02-24 17:00:00,
2013-02-24 12:04:00,34.4,29.5,29.75,East,88,3.0,6.0,82,0.00,,---,0.00,125.00,VWS V14.00,2013-02-24 17:04:00,
2013-02-24 12:09:00,34.6,29.7,29.75,East,91,3.0,6.0,82,0.00,,---,0.00,118.00,VWS V14.00,2013-02-24 17:09:00,
2013-02-24 12:14:00,34.6,29.7,29.75,ESE,103,0.0,6.0,82,0.00,,---,0.00,120.00,VWS V14.00,2013-02-24 17:14:00,
2013-02-24 12:19:00,34.7,29.8,29.75,SE,127,0.0,1.0,82,0.00,,---,0.00,121.00,VWS V14.00,2013-02-24 17:19:00,
2013-02-24 12:24:00,34.7,29.8,29.75,SSE,158,2.0,2.0,82,0.00,,---,0.00,118.00,VWS V14.00,2013-02-24 17:24:00,
2013-02-24 12:29:00,34.8,29.9,29.75,SSE,158,0.0,3.0,82,0.00,,---,0.00,120.00,VWS V14.00,2013-02-24 17:29:00,
2013-02-24 12:30:00,30.7,26.7,29.98,SSE,157,1.0,9.0,85,0.01,,---,0.01,53.00,VWS V14.00,2013-02-24 17:30:00,
2013-02-24 12:34:00,34.8,29.9,29.75,SSE,158,0.0,3.0,82,0.00,,---,0.00,118.00,VWS V14.00,2013-02-24 17:34:00,
2013-02-24 12:39:00,34.8,29.9,29.75,SSE,158,0.0,3.0,82,0.00,,---,0.00,125.00,VWS V14.00,2013-02-24 17:39:00,
2013-02-24 12:44:00,34.8,29.9,29.74,SSE,158,0.0,3.0,82,0.00,,---,0.00,125.00,VWS V14.00,2013-02-24 17:44:00,
2013-02-24 12:49:00,35.0,30.1,29.74,SSE,158,0.0,1.0,82,0.00,,---,0.00,135.00,VWS V14.00,2013-02-24 17:49:00,
2013-02-24 12:54:00,35.2,30.6,29.74,SSE,158,0.0,2.0,83,0.00,,---,0.00,146.00,VWS V14.00,2013-02-24 17:54:00,
2013-02-24 12:59:00,35.4,30.8,29.74,SSE,158,1.0,2.0,83,0.00,,---,0.00,146.00,VWS V14.00,2013-02-24 17:59:00,
2013-02-24 13:00:00,30.3,27.2,29.97,SSE,156,5.0,11.0,88,0.01,,---,0.02,90.00,VWS V14.00,2013-02-24 18:00:00,
2013-02-24 13:04:00,35.3,30.7,29.74,SSE,158,0.0,2.0,83,0.00,,---,0.00,123.00,VWS V14.00,2013-02-24 18:04:00,
2013-02-24 13:09:00,35.1,30.2,29.74,SSE,158,0.0,2.0,82,0.00,,---,0.00,121.00,VWS V14.00,2013-02-24 18:09:00,
2013-02-24 13:14:00,35.1,30.5,29.74,SSE,158,0.0,2.0,83,0.00,,---,0.00,158.00,VWS V14.00,2013-02-24 18:14:00,
2013-02-24 13:19:00,35.3,30.7,29.74,SSE,158,0.0,1.0,83,0.00,,---,0.00,158.00,VWS V14.00,2013-02-24 18:19:00,
2013-02-24 13:25:00,35.4,30.8,29.74,SSE,158,0.0,1.0,83,0.00,,---,0.00,142.00,VWS V14.00,2013-02-24 18:25:00,
2013-02-24 13:30:00,35.7,31.0,29.74,SSE,158,0.0,1.0,83,0.00,,---,0.00,128.00,VWS V14.00,2013-02-24 18:30:00,
2013-02-24 13:35:00,35.6,31.0,29.74,WNW,302,3.0,3.0,83,0.00,,---,0.00,113.00,VWS V14.00,2013-02-24 18:35:00,
2013-02-24 13:40:00,35.2,30.9,29.74,WNW,302,2.0,4.0,84,0.00,,---,0.00,127.00,VWS V14.00,2013-02-24 18:40:00,
2013-02-24 13:45:00,34.8,30.8,29.74,WNW,302,0.0,4.0,85,0.00,,---,0.00,125.00,VWS V14.00,2013-02-24 18:45:00,
2013-02-24 13:50:00,34.5,30.8,29.74,WNW,302,0.0,4.0,86,0.00,,---,0.00,113.00,VWS V14.00,2013-02-24 18:50:00,
2013-02-24 13:55:00,34.3,30.6,29.74,WNW,302,1.0,5.0,86,0.00,,---,0.00,86.00,VWS V14.00,2013-02-24 18:55:00,
2013-02-24 14:00:00,34.2,30.7,29.74,WNW,302,2.0,5.0,87,0.00,,---,0.00,98.00,VWS V14.00,2013-02-24 19:00:00,
2013-02-24 14:05:00,34.1,30.6,29.73,WNW,302,0.0,5.0,87,0.00,,---,0.00,95.00,VWS V14.00,2013-02-24 19:05:00,
2013-02-24 14:10:00,34.1,30.6,29.74,WNW,302,0.0,5.0,87,0.00,,---,0.00,95.00,VWS V14.00,2013-02-24 19:10:00,
2013-02-24 14:15:00,34.1,30.6,29.74,WNW,302,4.0,5.0,87,0.00,,---,0.00,95.00,VWS V14.00,2013-02-24 19:15:00,
2013-02-24 14:20:00,33.9,30.7,29.74,WNW,302,2.0,4.0,88,0.00,,---,0.00,95.00,VWS V14.00,2013-02-24 19:20:00,
2013-02-24 14:25:00,33.7,30.5,29.74,NW,306,5.0,6.0,88,0.00,,---,0.00,91.00,VWS V14.00,2013-02-24 19:25:00,
2013-02-24 14:30:00,33.5,30.3,29.74,NW,305,0.0,6.0,88,0.00,,---,0.00,79.00,VWS V14.00,2013-02-24 19:30:00,
2013-02-24 14:35:00,33.6,30.4,29.74,NW,307,3.0,6.0,88,0.00,,---,0.00,69.00,VWS V14.00,2013-02-24 19:35:00,
2013-02-24 14:40:00,33.5,30.3,29.74,NW,307,0.0,6.0,88,0.00,,---,0.00,69.00,VWS V14.00,2013-02-24 19:40:00,
2013-02-24 14:45:00,33.4,30.2,29.74,NW,307,0.0,6.0,88,0.00,,---,0.00,69.00,VWS V14.00,2013-02-24 19:45:00,
2013-02-24 14:50:00,33.3,30.4,29.74,NW,307,0.0,3.0,89,0.00,,---,0.00,58.00,VWS V14.00,2013-02-24 19:50:00,
2013-02-24 14:55:00,33.3,30.4,29.74,NW,307,1.0,3.0,89,0.00,,---,0.00,58.00,VWS V14.00,2013-02-24 19:55:00,
2013-02-24 15:00:00,33.2,30.3,29.74,NW,307,0.0,4.0,89,0.00,,---,0.00,58.00,VWS V14.00,2013-02-24 20:00:00,
2013-02-24 15:05:00,33.1,30.2,29.74,NW,306,4.0,4.0,89,0.00,,---,0.00,74.00,VWS V14.00,2013-02-24 20:05:00,
2013-02-24 15:10:00,33.0,30.1,29.74,NW,309,1.0,5.0,89,0.01,,---,0.01,90.00,VWS V14.00,2013-02-24 20:10:00,
2013-02-24 15:15:00,33.0,30.1,29.74,NW,313,0.0,7.0,89,0.01,,---,0.01,76.00,VWS V14.00,2013-02-24 20:15:00,
2013-02-24 15:20:00,33.0,30.1,29.74,NW,313,1.0,3.0,89,0.01,,---,0.01,62.00,VWS V14.00,2013-02-24 20:20:00,
2013-02-24 15:25:00,33.0,30.1,29.75,NW,305,2.0,5.0,89,0.01,,---,0.01,44.00,VWS V14.00,2013-02-24 20:25:00,
2013-02-24 15:30:00,32.9,30.0,29.75,WNW,303,2.0,5.0,89,0.01,,---,0.01,54.00,VWS V14.00,2013-02-24 20:30:00,
2013-02-24 15:35:00,32.8,30.2,29.75,NW,304,6.0,9.0,90,0.01,,---,0.01,49.00,VWS V14.00,2013-02-24 20:35:00,
2013-02-24 15:40:00,32.5,29.9,29.75,WNW,288,5.0,9.0,90,0.01,,---,0.01,37.00,VWS V14.00,2013-02-24 20:40:00,
2013-02-24 15:45:00,32.3,29.7,29.75,WNW,284,6.0,6.0,90,0.01,,---,0.01,25.00,VWS V14.00,2013-02-24 20:45:00,
2013-02-24 15:50:00,32.1,29.5,29.75,WNW,294,2.0,8.0,90,0.01,,---,0.01,25.00,VWS V14.00,2013-02-24 20:50:00,
2013-02-24 15:55:00,31.9,29.3,29.75,WNW,294,5.0,8.0,90,0.01,,---,0.01,25.00,VWS V14.00,2013-02-24 20:55:00,
2013-02-24 16:00:00,31.8,29.2,29.76,WNW,302,9.0,9.0,90,0.01,,---,0.01,23.00,VWS V14.00,2013-02-24 21:00:00,
2013-02-24 16:05:00,31.6,29.0,29.76,WNW,292,5.0,11.0,90,0.01,,---,0.01,26.00,VWS V14.00,2013-02-24 21:05:00,
2013-02-24 16:10:00,31.5,28.9,29.76,WNW,288,2.0,11.0,90,0.01,,---,0.01,19.00,VWS V14.00,2013-02-24 21:10:00,
2013-02-24 16:16:00,31.4,28.8,29.76,NW,309,8.0,9.0,90,0.00,,---,0.01,18.00,VWS V14.00,2013-02-24 21:16:00,
2013-02-24 16:21:00,31.1,28.5,29.76,WNW,302,2.0,10.0,90,0.00,,---,0.01,18.00,VWS V14.00,2013-02-24 21:21:00,
2013-02-24 16:26:00,30.9,28.3,29.77,NW,304,3.0,10.0,90,0.00,,---,0.01,19.00,VWS V14.00,2013-02-24 21:26:00,
2013-02-24 16:30:00,30.4,27.0,29.93,South,180,4.0,15.0,87,0.00,,---,0.03,0.00,VWS V14.00,2013-02-24 21:30:00,
2013-02-24 16:31:00,30.7,28.1,29.77,NW,309,4.0,10.0,90,0.00,,---,0.01,18.00,VWS V14.00,2013-02-24 21:31:00,
2013-02-24 16:36:00,30.5,27.9,29.77,NW,305,5.0,10.0,90,0.00,,---,0.01,18.00,VWS V14.00,2013-02-24 21:36:00,
2013-02-24 16:41:00,30.4,27.8,29.77,NNE,20,1.0,10.0,90,0.00,,---,0.01,12.00,VWS V14.00,2013-02-24 21:41:00,
2013-02-24 16:46:00,30.3,27.7,29.77,NW,315,4.0,5.0,90,0.00,,---,0.01,11.00,VWS V14.00,2013-02-24 21:46:00,
2013-02-24 16:51:00,30.3,27.7,29.77,NNW,338,4.0,9.0,90,0.00,,---,0.01,14.00,VWS V14.00,2013-02-24 21:51:00,
2013-02-24 16:56:00,30.2,27.6,29.78,NW,310,4.0,10.0,90,0.00,,---,0.01,12.00,VWS V14.00,2013-02-24 21:56:00,
2013-02-24 17:00:00,30.5,27.1,29.92,East,80,6.0,11.0,87,0.00,,---,0.03,0.00,VWS V14.00,2013-02-24 22:00:00,
2013-02-24 17:01:00,30.1,27.5,29.78,WNW,300,3.0,10.0,90,0.00,,---,0.01,11.00,VWS V14.00,2013-02-24 22:01:00,
2013-02-24 17:06:00,30.1,27.3,29.78,WNW,297,4.0,13.0,89,0.00,,---,0.01,9.00,VWS V14.00,2013-02-24 22:06:00,
2013-02-24 17:11:00,30.0,27.2,29.78,West,279,2.0,13.0,89,0.00,,---,0.01,5.00,VWS V14.00,2013-02-24 22:11:00,
2013-02-24 17:16:00,29.9,27.1,29.78,WNW,291,4.0,7.0,89,0.00,,---,0.01,0.00,VWS V14.00,2013-02-24 22:16:00,
2013-02-24 17:21:00,29.9,27.1,29.79,NW,321,5.0,7.0,89,0.00,,---,0.01,0.00,VWS V14.00,2013-02-24 22:21:00,
2013-02-24 17:26:00,29.8,27.0,29.79,WNW,301,7.0,9.0,89,0.00,,---,0.01,0.00,VWS V14.00,2013-02-24 22:26:00,
2013-02-24 17:30:00,30.9,26.9,29.92,SE,130,3.0,22.0,85,0.00,,---,0.03,0.00,VWS V14.00,2013-02-24 22:30:00,
2013-02-24 17:31:00,29.7,26.9,29.79,WNW,288,3.0,9.0,89,0.00,,---,0.01,0.00,VWS V14.00,2013-02-24 22:31:00,
2013-02-24 17:36:00,29.7,26.9,29.79,West,280,0.0,9.0,89,0.00,,---,0.01,0.00,VWS V14.00,2013-02-24 22:36:00,
2013-02-24 17:41:00,29.6,26.8,29.80,WNW,299,3.0,9.0,89,0.00,,---,0.01,0.00,VWS V14.00,2013-02-24 22:41:00,
2013-02-24 17:46:00,29.5,26.7,29.79,West,269,3.0,4.0,89,0.00,,---,0.01,0.00,VWS V14.00,2013-02-24 22:46:00,
2013-02-24 17:51:00,29.4,26.6,29.80,West,281,4.0,7.0,89,0.00,,---,0.01,0.00,VWS V14.00,2013-02-24 22:51:00,
2013-02-24 17:56:00,29.3,26.5,29.80,NW,306,0.0,7.0,89,0.00,,---,0.01,0.00,VWS V14.00,2013-02-24 22:56:00,
2013-02-24 18:00:00,30.6,27.2,29.92,SSE,159,0.0,13.0,87,0.00,,---,0.03,0.00,VWS V14.00,2013-02-24 23:00:00,
2013-02-24 18:01:00,29.3,26.5,29.80,WNW,289,3.0,7.0,89,0.00,,---,0.01,0.00,VWS V14.00,2013-02-24 23:01:00,
2013-02-24 18:06:00,29.2,26.6,29.80,NW,321,0.0,7.0,90,0.01,,---,0.02,0.00,VWS V14.00,2013-02-24 23:06:00,
2013-02-24 18:11:00,29.3,26.7,29.81,NW,315,0.0,7.0,90,0.01,,---,0.02,0.00,VWS V14.00,2013-02-24 23:11:00,
2013-02-24 18:16:00,29.3,26.7,29.81,NW,315,0.0,0.0,90,0.01,,---,0.02,0.00,VWS V14.00,2013-02-24 23:16:00,
2013-02-24 18:21:00,29.2,26.6,29.82,NW,315,1.0,3.0,90,0.01,,---,0.02,0.00,VWS V14.00,2013-02-24 23:21:00,
2013-02-24 18:26:00,29.2,26.6,29.82,WNW,290,2.0,5.0,90,0.01,,---,0.02,0.00,VWS V14.00,2013-02-24 23:26:00,
2013-02-24 18:30:00,30.8,27.1,29.92,SE,139,2.0,15.0,86,0.00,,---,0.03,0.00,VWS V14.00,2013-02-24 23:30:00,
2013-02-24 18:31:00,29.1,26.5,29.82,WNW,290,1.0,5.0,90,0.01,,---,0.02,0.00,VWS V14.00,2013-02-24 23:31:00,
2013-02-24 18:37:00,29.0,26.4,29.82,WNW,295,3.0,7.0,90,0.01,,---,0.02,0.00,VWS V14.00,2013-02-24 23:37:00,
2013-02-24 18:42:00,28.9,26.3,29.83,WNW,300,5.0,7.0,90,0.01,,---,0.02,0.00,VWS V14.00,2013-02-24 23:42:00,
2013-02-24 18:47:00,28.8,26.2,29.83,West,274,4.0,4.0,90,0.01,,---,0.02,0.00,VWS V14.00,2013-02-24 23:47:00,
2013-02-24 18:52:00,28.8,26.2,29.83,WNW,286,3.0,4.0,90,0.01,,---,0.02,0.00,VWS V14.00,2013-02-24 23:52:00,
2013-02-24 18:57:00,28.8,26.2,29.83,WNW,292,2.0,4.0,90,0.01,,---,0.02,0.00,VWS V14.00,2013-02-24 23:57:00,
2013-02-24 19:00:00,31.1,27.1,29.91,SSE,150,8.0,18.0,85,0.00,,---,0.03,0.00,VWS V14.00,2013-02-25 00:00:00,
2013-02-24 19:02:00,28.7,26.1,29.84,NW,319,2.0,5.0,90,0.01,,---,0.02,0.00,VWS V14.00,2013-02-25 00:02:00,
2013-02-24 19:07:00,28.7,26.1,29.84,WNW,294,4.0,7.0,90,0.01,,---,0.02,0.00,VWS V14.00,2013-02-25 00:07:00,
2013-02-24 19:12:00,28.7,26.1,29.84,WNW,296,3.0,7.0,90,0.01,,---,0.02,0.00,VWS V14.00,2013-02-25 00:12:00,
2013-02-24 19:17:00,28.6,26.0,29.84,WNW,286,1.0,6.0,90,0.01,,---,0.03,0.00,VWS V14.00,2013-02-25 00:17:00,
2013-02-24 19:22:00,28.6,26.0,29.85,WNW,302,2.0,6.0,90,0.01,,---,0.03,0.00,VWS V14.00,2013-02-25 00:22:00,
2013-02-24 19:27:00,28.6,26.0,29.85,NW,307,2.0,6.0,90,0.01,,---,0.03,0.00,VWS V14.00,2013-02-25 00:27:00,
2013-02-24 19:30:00,31.1,27.4,29.90,ESE,119,18.0,21.0,86,0.00,,---,0.03,0.00,VWS V14.00,2013-02-25 00:30:00,
2013-02-24 19:32:00,28.6,26.0,29.85,NW,306,5.0,7.0,90,0.01,,---,0.03,0.00,VWS V14.00,2013-02-25 00:32:00,
2013-02-24 19:37:00,28.6,26.0,29.85,WNW,296,6.0,7.0,90,0.01,,---,0.03,0.00,VWS V14.00,2013-02-25 00:37:00,
2013-02-24 19:42:00,28.5,26.0,29.85,WNW,302,2.0,8.0,90,0.01,,---,0.03,0.00,VWS V14.00,2013-02-25 00:42:00,
2013-02-24 19:47:00,28.5,26.0,29.86,WNW,296,3.0,4.0,90,0.01,,---,0.03,0.00,VWS V14.00,2013-02-25 00:47:00,
2013-02-24 19:52:00,28.5,26.0,29.86,WNW,301,4.0,5.0,90,0.01,,---,0.03,0.00,VWS V14.00,2013-02-25 00:52:00,
2013-02-24 19:57:00,28.5,26.0,29.86,WNW,290,2.0,5.0,90,0.01,,---,0.03,0.00,VWS V14.00,2013-02-25 00:57:00,
2013-02-24 20:00:00,31.4,27.1,29.88,ESE,108,3.0,22.0,84,0.00,,---,0.03,0.00,VWS V14.00,2013-02-25 01:00:00,
2013-02-24 20:02:00,28.5,26.0,29.86,WNW,288,1.0,5.0,90,0.01,,---,0.03,0.00,VWS V14.00,2013-02-25 01:02:00,
2013-02-24 20:07:00,28.5,26.0,29.86,WNW,286,4.0,7.0,90,0.01,,---,0.03,0.00,VWS V14.00,2013-02-25 01:07:00,
2013-02-24 20:12:00,28.5,26.0,29.86,NW,313,5.0,7.0,90,0.01,,---,0.03,0.00,VWS V14.00,2013-02-25 01:12:00,
2013-02-24 20:17:00,28.5,26.0,29.87,WNW,292,3.0,6.0,90,0.00,,---,0.03,0.00,VWS V14.00,2013-02-25 01:17:00,
2013-02-24 20:22:00,28.5,26.0,29.87,WNW,301,5.0,6.0,90,0.00,,---,0.03,0.00,VWS V14.00,2013-02-25 01:22:00,
2013-02-24 20:27:00,28.5,26.0,29.87,NW,306,2.0,6.0,90,0.01,,---,0.04,0.00,VWS V14.00,2013-02-25 01:27:00,
2013-02-24 20:30:00,31.2,26.9,29.88,SSE,167,4.0,16.0,84,0.00,,---,0.03,0.00,VWS V14.00,2013-02-25 01:30:00,
2013-02-24 20:32:00,28.6,26.0,29.87,WNW,300,1.0,6.0,90,0.01,,---,0.04,0.00,VWS V14.00,2013-02-25 01:32:00,
2013-02-24 20:37:00,28.6,26.0,29.87,NW,307,3.0,6.0,90,0.01,,---,0.04,0.00,VWS V14.00,2013-02-25 01:37:00,
2013-02-24 20:42:00,28.7,26.1,29.88,NW,311,1.0,6.0,90,0.01,,---,0.04,0.00,VWS V14.00,2013-02-25 01:42:00,
2013-02-24 20:47:00,28.7,26.1,29.88,WNW,296,1.0,2.0,90,0.01,,---,0.04,0.00,VWS V14.00,2013-02-25 01:47:00,
2013-02-24 20:52:00,28.6,26.0,29.88,WNW,302,1.0,5.0,90,0.01,,---,0.04,0.00,VWS V14.00,2013-02-25 01:52:00,
2013-02-24 20:57:00,28.6,26.0,29.88,WNW,301,0.0,5.0,90,0.01,,---,0.04,0.00,VWS V14.00,2013-02-25 01:57:00,
2013-02-24 21:00:00,31.2,27.2,29.87,ESE,120,3.0,16.0,85,0.00,,---,0.03,0.00,VWS V14.00,2013-02-25 02:00:00,
2013-02-24 21:02:00,28.6,26.0,29.88,WNW,301,2.0,5.0,90,0.01,,---,0.04,0.00,VWS V14.00,2013-02-25 02:02:00,
2013-02-24 21:07:00,28.6,26.0,29.88,WNW,301,0.0,5.0,90,0.01,,---,0.04,0.00,VWS V14.00,2013-02-25 02:07:00,
2013-02-24 21:12:00,28.5,26.0,29.88,WNW,301,1.0,5.0,90,0.01,,---,0.04,0.00,VWS V14.00,2013-02-25 02:12:00,
2013-02-24 21:17:00,28.5,26.0,29.89,WNW,301,1.0,2.0,90,0.01,,---,0.04,0.00,VWS V14.00,2013-02-25 02:17:00,
2013-02-24 21:22:00,28.5,26.0,29.88,WNW,301,1.0,2.0,90,0.01,,---,0.04,0.00,VWS V14.00,2013-02-25 02:22:00,
2013-02-24 21:27:00,28.4,25.9,29.89,WNW,298,2.0,4.0,90,0.01,,---,0.04,0.00,VWS V14.00,2013-02-25 02:27:00,
2013-02-24 21:30:00,31.1,27.1,29.87,ESE,103,11.0,19.0,85,0.00,,---,0.03,0.00,VWS V14.00,2013-02-25 02:30:00,
2013-02-24 21:32:00,28.4,25.9,29.89,WNW,298,2.0,4.0,90,0.01,,---,0.04,0.00,VWS V14.00,2013-02-25 02:32:00,
2013-02-24 21:37:00,28.3,25.8,29.89,WNW,298,0.0,4.0,90,0.01,,---,0.04,0.00,VWS V14.00,2013-02-25 02:37:00,
2013-02-24 21:42:00,28.4,25.9,29.89,WNW,298,1.0,4.0,90,0.01,,---,0.04,0.00,VWS V14.00,2013-02-25 02:42:00,
2013-02-24 21:47:00,28.4,25.9,29.89,WNW,287,4.0,4.0,90,0.00,,---,0.04,0.00,VWS V14.00,2013-02-25 02:47:00,
2013-02-24 21:52:00,28.4,25.9,29.89,NW,309,2.0,6.0,90,0.00,,---,0.04,0.00,VWS V14.00,2013-02-25 02:52:00,
2013-02-24 21:57:00,28.4,25.9,29.89,WNW,292,2.0,6.0,90,0.00,,---,0.04,0.00,VWS V14.00,2013-02-25 02:57:00,
2013-02-24 22:00:00,31.0,27.0,29.86,SSE,161,6.0,13.0,85,0.00,,---,0.03,0.00,VWS V14.00,2013-02-25 03:00:00,
2013-02-24 22:02:00,28.5,26.0,29.89,WNW,295,1.0,6.0,90,0.00,,---,0.04,0.00,VWS V14.00,2013-02-25 03:02:00,
2013-02-24 22:07:00,28.5,26.0,29.89,NW,312,3.0,6.0,90,0.00,,---,0.04,0.00,VWS V14.00,2013-02-25 03:07:00,
2013-02-24 22:12:00,28.5,26.0,29.89,WNW,300,3.0,6.0,90,0.00,,---,0.04,0.00,VWS V14.00,2013-02-25 03:12:00,
2013-02-24 22:17:00,28.5,26.0,29.89,WNW,284,5.0,5.0,90,0.00,,---,0.04,0.00,VWS V14.00,2013-02-25 03:17:00,
2013-02-24 22:22:00,28.5,26.0,29.90,NNW,338,5.0,5.0,90,0.00,,---,0.04,0.00,VWS V14.00,2013-02-25 03:22:00,
2013-02-24 22:27:00,28.5,26.0,29.90,NW,320,5.0,8.0,90,0.00,,---,0.04,0.00,VWS V14.00,2013-02-25 03:27:00,
2013-02-24 22:30:00,30.8,27.1,29.86,South,182,5.0,12.0,86,0.00,,---,0.03,0.00,VWS V14.00,2013-02-25 03:30:00,
2013-02-24 22:32:00,28.5,26.0,29.90,WNW,298,2.0,8.0,90,0.00,,---,0.04,0.00,VWS V14.00,2013-02-25 03:32:00,
2013-02-24 22:37:00,28.5,26.0,29.90,WNW,299,4.0,8.0,90,0.00,,---,0.04,0.00,VWS V14.00,2013-02-25 03:37:00,
2013-02-24 22:42:00,28.5,26.0,29.90,West,262,2.0,8.0,90,0.00,,---,0.04,0.00,VWS V14.00,2013-02-25 03:42:00,
2013-02-24 22:48:00,28.5,25.7,29.90,NW,306,4.0,6.0,89,0.00,,---,0.04,0.00,VWS V14.00,2013-02-25 03:48:00,
2013-02-24 22:53:00,28.5,25.7,29.90,NW,315,1.0,8.0,89,0.00,,---,0.04,0.00,VWS V14.00,2013-02-25 03:53:00,
2013-02-24 22:58:00,28.5,25.7,29.90,WNW,295,2.0,8.0,89,0.00,,---,0.04,0.00,VWS V14.00,2013-02-25 03:58:00,
2013-02-24 23:00:00,30.8,27.1,29.85,South,171,1.0,10.0,86,0.00,,---,0.03,0.00,VWS V14.00,2013-02-25 04:00:00,
2013-02-24 23:03:00,28.5,25.7,29.90,WNW,301,2.0,8.0,89,0.00,,---,0.04,0.00,VWS V14.00,2013-02-25 04:03:00,
2013-02-24 23:08:00,28.5,25.7,29.90,WNW,301,2.0,8.0,89,0.00,,---,0.04,0.00,VWS V14.00,2013-02-25 04:08:00,
2013-02-24 23:13:00,28.5,25.7,29.90,WNW,298,1.0,8.0,89,0.00,,---,0.04,0.00,VWS V14.00,2013-02-25 04:13:00,
2013-02-24 23:18:00,28.4,25.6,29.90,West,280,3.0,4.0,89,0.00,,---,0.04,0.00,VWS V14.00,2013-02-25 04:18:00,
2013-02-24 23:23:00,28.4,25.6,29.91,NW,305,2.0,5.0,89,0.00,,---,0.04,0.00,VWS V14.00,2013-02-25 04:23:00,
2013-02-24 23:28:00,28.4,25.6,29.91,NW,306,1.0,5.0,89,0.00,,---,0.04,0.00,VWS V14.00,2013-02-25 04:28:00,
2013-02-24 23:30:00,30.7,27.3,29.85,SSE,155,3.0,7.0,87,0.00,,---,0.03,0.00,VWS V14.00,2013-02-25 04:30:00,
2013-02-24 23:33:00,28.5,25.4,29.91,West,277,0.0,5.0,88,0.00,,---,0.04,0.00,VWS V14.00,2013-02-25 04:33:00,
2013-02-24 23:38:00,28.5,25.4,29.91,NNW,337,2.0,5.0,88,0.00,,---,0.04,0.00,VWS V14.00,2013-02-25 04:38:00,
2013-02-24 23:43:00,28.5,25.4,29.91,North,360,0.0,5.0,88,0.00,,---,0.04,0.00,VWS V14.00,2013-02-25 04:43:00,
2013-02-24 23:48:00,28.5,25.4,29.91,NW,306,0.0,3.0,88,0.00,,---,0.04,0.00,VWS V14.00,2013-02-25 04:48:00,
2013-02-24 23:53:00,28.5,25.4,29.92,NW,306,0.0,3.0,88,0.00,,---,0.04,0.00,VWS V14.00,2013-02-25 04:53:00,
2013-02-24 23:58:00,28.5,25.4,29.92,NW,325,0.0,3.0,88,0.00,,---,0.04,0.00,VWS V14.00,2013-02-25 04:58:00,